CPD4 weather

Brussels (Armstrong Field) Airport
Brussels, Ontario, Canada

Public forecast

Using degrees Celsius for public forecast. Weather courtesy of forecast.io.

Closest aviation weather report (METAR) to Brussels (Armstrong Field) Airport

Closest report is Waterloo Airport, 41.0 nm (76.0 km) ESE. Retrieved 2019/10/23 22:00 UTC (51 minutes ago):

CYKF 232200Z AUTO 23011G16KT 9SM CLR 11/M01 A2995 RMK SLP147

Closest aviation forecast (TAF) to Brussels (Armstrong Field) Airport

Closest forecast is Waterloo Airport, 41.0 nm (76.0 km) ESE. Retrieved 2019/10/23 20:42 UTC (2 hours ago):

TAF CYKF 231938Z 2320/2408 24018G30KT P6SM BKN050 FM232300 24012KT P6SM FEW040 FM240500 24012KT P6SM BKN050 BKN080 RMK FCST BASED ON AUTO OBS NXT FCST BY 240200Z